Accueil
METAR-TAF:

METAR-TAF

Aéroports :

Aéroport international de Chongqing-Jiangbei

Chongqing, Chine

latitude: 29-31N, longitude: 106-29E, altitude: 351 m

Observation

Le bulletin a été fait il y a 40 minutes, à 03:00 UTC
Vent 4 kt de est, variant entre est/nord-est et sud-est
Température 9°C
Humidité 87%
Pression 1023 hPa
Visibilité: 6000 m
Quelques nuages à une hauteur de 3000 ft
Ciel couvert à une hauteur de 4000 ft

METAR: ZUCK 230300Z 10002MPS 060V130 6000 FEW030 OVC040 09/07 Q1023 NOSIG

Heure: 11:40 (03:40 UTC)

Prévision

Le bulletin a été fait il y a 8 heures et 33 minutes, à 19:07 UTC
Prévision valable du 23 à 00 UTC au 23 à 24 UTC
Vent 6 kt de est/nord-est
Visibilité: 5000 m
Nuages épars à une hauteur de 5000 ft
brume

TAF: ZUCK 221907Z 2300/2324 06003MPS 5000 BR SCT050 TX12/2308Z TN08/2322Z

Observations et prévisions météorologiques de plus de 4000 aéroports (messages METAR et TAF).

Les stations disponibles sont représentées par des disques jaunes et rouges sur la carte.

Passer la souris dessus pour voir le nom de la station.

Cliquer dessus pour voir les observations et prévisions météorologiques.

Pour changer de carte: cliquez sur les boutons verts avec une croix noire pour zoomer, sur le bouton vert avec un tiret pour effectuer un zoom arrière, ou sur les flèches vertes pour les cartes adjacentes.


METAR-TAF: